createdAt,value
2022-12-31T00:01:26.612Z,3.99
2022-12-31T00:03:53.634Z,3.92
2022-12-31T00:06:22.399Z,3.91
2022-12-31T00:08:51.194Z,3.90
2022-12-31T00:11:18.269Z,3.90
2022-12-31T00:13:46.716Z,3.86
2022-12-31T00:16:19.026Z,3.89
2022-12-31T00:18:47.019Z,3.90
2022-12-31T00:21:14.132Z,3.92
2022-12-31T00:23:41.095Z,3.97
2022-12-31T00:26:09.459Z,4.02
2022-12-31T00:28:37.157Z,4.08
2022-12-31T00:31:04.862Z,4.12
2022-12-31T00:33:31.659Z,4.15
2022-12-31T00:36:08.652Z,4.18
2022-12-31T00:38:35.908Z,4.22
2022-12-31T00:41:02.870Z,4.25
2022-12-31T00:43:29.720Z,4.26
2022-12-31T00:45:56.632Z,4.27
2022-12-31T00:48:23.469Z,4.27
2022-12-31T00:50:50.212Z,4.27
2022-12-31T00:53:17.129Z,4.28
2022-12-31T00:55:43.861Z,4.28
2022-12-31T00:58:10.597Z,4.28
2022-12-31T01:00:37.567Z,4.28
2022-12-31T01:03:04.935Z,4.32
2022-12-31T01:05:32.708Z,4.32
2022-12-31T01:07:59.502Z,4.33
2022-12-31T01:10:44.788Z,4.31
2022-12-31T01:13:11.575Z,4.30
2022-12-31T01:15:38.618Z,4.32
2022-12-31T01:18:06.100Z,4.32
2022-12-31T01:20:37.176Z,4.30
2022-12-31T01:23:04.018Z,4.28
2022-12-31T01:25:30.827Z,4.26
2022-12-31T01:27:57.523Z,4.20
2022-12-31T01:30:24.259Z,4.11
2022-12-31T01:32:51.383Z,4.06
2022-12-31T01:35:18.054Z,4.01
2022-12-31T01:37:44.923Z,3.95
2022-12-31T01:40:11.728Z,3.91
2022-12-31T01:42:38.498Z,3.87
2022-12-31T01:45:09.880Z,3.85
2022-12-31T01:47:39.919Z,3.82
2022-12-31T01:50:11.322Z,3.79
2022-12-31T01:52:40.265Z,3.78
2022-12-31T01:55:15.008Z,3.76
2022-12-31T01:57:43.341Z,3.74
2022-12-31T02:00:10.436Z,3.71
2022-12-31T02:02:37.458Z,3.67
2022-12-31T02:05:08.877Z,3.65
2022-12-31T02:07:35.646Z,3.64
2022-12-31T02:10:02.494Z,3.64
2022-12-31T02:12:29.345Z,3.62
2022-12-31T02:14:56.463Z,3.60
2022-12-31T02:17:23.166Z,3.58
2022-12-31T02:19:55.748Z,3.57
2022-12-31T02:22:41.296Z,3.55
2022-12-31T02:25:14.275Z,3.57
2022-12-31T02:27:44.032Z,3.54
2022-12-31T02:30:17.578Z,3.57
2022-12-31T02:32:44.433Z,3.58
2022-12-31T02:35:32.980Z,3.58
2022-12-31T02:38:09.277Z,3.58
2022-12-31T02:40:37.169Z,3.58
2022-12-31T02:43:04.004Z,3.53
2022-12-31T02:45:34.560Z,3.48
2022-12-31T02:48:04.364Z,3.47
2022-12-31T02:50:57.227Z,3.43
2022-12-31T02:53:42.837Z,3.40
2022-12-31T02:56:32.827Z,3.37
2022-12-31T02:59:21.997Z,3.30
2022-12-31T03:02:12.282Z,3.30
2022-12-31T03:04:40.090Z,3.30
2022-12-31T03:07:07.795Z,3.30
2022-12-31T03:09:35.533Z,3.28
2022-12-31T06:44:22.618Z,1.06
2022-12-31T06:46:50.473Z,1.18
2022-12-31T06:49:17.932Z,1.25
2022-12-31T06:51:46.291Z,1.33
2022-12-31T06:54:13.744Z,1.43
2022-12-31T06:56:41.376Z,1.48
2022-12-31T06:59:24.394Z,1.62
2022-12-31T07:01:57.333Z,1.75
2022-12-31T07:04:45.150Z,1.87
2022-12-31T07:07:26.485Z,1.96
2022-12-31T07:10:08.328Z,2.09
2022-12-31T07:12:44.028Z,2.25
2022-12-31T07:15:25.771Z,2.37
2022-12-31T07:18:14.086Z,2.52
2022-12-31T07:20:42.076Z,2.67
2022-12-31T07:23:09.429Z,2.75
2022-12-31T07:25:41.266Z,2.88
2022-12-31T07:28:18.324Z,3.13
2022-12-31T07:30:55.820Z,3.38
2022-12-31T07:33:23.260Z,3.70
2022-12-31T07:35:50.093Z,4.03
2022-12-31T07:38:37.570Z,4.35
2022-12-31T07:41:42.879Z,4.82
2022-12-31T07:44:10.046Z,5.49
2022-12-31T07:47:00.964Z,5.86
2022-12-31T07:49:30.309Z,6.15
2022-12-31T07:51:57.381Z,6.42
2022-12-31T07:54:24.359Z,6.65
2022-12-31T07:56:52.139Z,6.98
2022-12-31T07:59:46.831Z,7.16
2022-12-31T08:02:40.119Z,7.71
2022-12-31T08:05:21.872Z,8.09
2022-12-31T08:08:08.820Z,8.28
2022-12-31T08:11:01.678Z,8.92
2022-12-31T08:13:29.334Z,9.19
2022-12-31T08:15:56.691Z,9.62
2022-12-31T08:18:24.068Z,9.83
2022-12-31T08:21:34.817Z,9.91
2022-12-31T08:24:40.870Z,10.07
2022-12-31T08:27:20.699Z,10.13
2022-12-31T08:29:58.751Z,10.10
2022-12-31T08:32:41.568Z,9.95
2022-12-31T08:35:29.097Z,9.84
2022-12-31T08:38:18.758Z,9.66
2022-12-31T08:41:00.985Z,9.57
2022-12-31T08:43:54.092Z,9.46
2022-12-31T08:46:31.662Z,9.42
2022-12-31T08:48:58.864Z,9.41
2022-12-31T08:51:27.234Z,9.31
2022-12-31T08:53:55.551Z,9.30
2022-12-31T08:56:50.658Z,9.44
2022-12-31T08:59:39.920Z,9.57
2022-12-31T09:02:34.816Z,9.76
2022-12-31T09:05:13.453Z,9.83
2022-12-31T09:07:55.148Z,10.13
2022-12-31T09:10:35.647Z,10.28
2022-12-31T09:13:05.540Z,10.17
2022-12-31T09:15:40.934Z,10.23
2022-12-31T09:18:10.090Z,10.43
2022-12-31T09:20:45.215Z,10.61
2022-12-31T09:23:13.660Z,10.63
2022-12-31T09:26:01.040Z,10.65
2022-12-31T09:28:44.709Z,10.28
2022-12-31T09:31:37.315Z,10.26
2022-12-31T09:34:13.572Z,10.38
2022-12-31T09:36:47.000Z,10.46
2022-12-31T09:39:43.309Z,10.57
2022-12-31T09:42:22.865Z,10.92
2022-12-31T09:45:17.584Z,11.20
2022-12-31T09:48:24.110Z,11.48
2022-12-31T09:51:08.926Z,11.53
2022-12-31T09:53:47.464Z,11.33
2022-12-31T09:56:27.354Z,11.37
2022-12-31T09:58:57.009Z,11.48
2022-12-31T10:01:42.792Z,11.49
2022-12-31T10:04:09.997Z,11.40
2022-12-31T10:06:49.326Z,11.39
2022-12-31T10:09:34.538Z,11.34
2022-12-31T10:12:32.711Z,11.27
2022-12-31T10:15:21.335Z,11.41
2022-12-31T10:18:25.795Z,11.59
2022-12-31T10:21:21.432Z,11.73
2022-12-31T10:24:22.552Z,11.80
2022-12-31T10:27:09.470Z,12.03
2022-12-31T10:29:59.483Z,12.38
2022-12-31T10:32:41.137Z,12.51
2022-12-31T10:35:29.940Z,12.46
2022-12-31T10:38:09.268Z,12.55
2022-12-31T10:40:57.967Z,12.73
2022-12-31T10:43:54.840Z,12.74
2022-12-31T10:46:58.706Z,12.87
2022-12-31T10:49:45.530Z,12.91
2022-12-31T10:52:38.159Z,13.15
2022-12-31T10:55:26.940Z,13.13
2022-12-31T10:58:02.030Z,13.20
2022-12-31T11:01:16.185Z,13.19
2022-12-31T11:04:09.257Z,13.28
2022-12-31T11:07:20.380Z,13.62
2022-12-31T11:10:25.155Z,14.20
2022-12-31T11:13:22.948Z,14.77
2022-12-31T11:16:13.549Z,15.18
2022-12-31T11:18:48.192Z,15.25
2022-12-31T11:21:28.261Z,15.38
2022-12-31T11:24:19.433Z,15.35
2022-12-31T11:27:17.339Z,15.40
2022-12-31T11:29:44.594Z,15.43
2022-12-31T11:32:28.477Z,15.30
2022-12-31T11:35:15.107Z,15.57
2022-12-31T11:37:50.968Z,15.69
2022-12-31T11:40:42.845Z,15.23
2022-12-31T11:43:35.948Z,15.38
2022-12-31T11:46:19.271Z,15.36
2022-12-31T11:48:58.697Z,15.48
2022-12-31T11:51:50.011Z,15.63
2022-12-31T11:54:44.969Z,16.02
2022-12-31T11:57:30.144Z,15.84
2022-12-31T12:00:00.875Z,15.91
2022-12-31T12:02:36.285Z,15.87
2022-12-31T12:05:10.703Z,15.80
2022-12-31T12:07:38.181Z,15.69
2022-12-31T12:10:23.660Z,15.77
2022-12-31T12:12:52.376Z,15.64
2022-12-31T12:15:24.794Z,15.67
2022-12-31T12:17:59.782Z,16.06
2022-12-31T12:20:33.047Z,16.58
2022-12-31T12:23:01.657Z,17.08
2022-12-31T12:25:39.556Z,17.44
2022-12-31T12:28:18.772Z,17.51
2022-12-31T12:30:54.902Z,17.68
2022-12-31T12:33:21.971Z,17.49
2022-12-31T12:35:49.028Z,17.45
2022-12-31T12:38:19.632Z,17.13
2022-12-31T12:40:59.145Z,17.27
2022-12-31T12:43:29.019Z,17.64
2022-12-31T12:46:03.725Z,17.93
2022-12-31T12:48:39.123Z,18.24
2022-12-31T12:51:30.822Z,18.34
2022-12-31T12:54:08.264Z,18.04
2022-12-31T12:57:05.767Z,18.18
2022-12-31T13:00:17.244Z,18.44
2022-12-31T13:03:29.019Z,18.31
2022-12-31T13:06:02.018Z,18.60
2022-12-31T13:08:59.345Z,18.75
2022-12-31T13:12:07.702Z,18.87
2022-12-31T13:14:43.946Z,18.91
2022-12-31T13:17:49.769Z,18.61
2022-12-31T13:20:35.486Z,18.61
2022-12-31T13:23:05.945Z,18.58
2022-12-31T13:25:38.714Z,18.51
2022-12-31T13:28:12.189Z,18.45
2022-12-31T13:30:43.299Z,18.42
2022-12-31T13:33:37.689Z,18.68
2022-12-31T13:36:20.734Z,18.85
2022-12-31T13:38:50.308Z,19.05
2022-12-31T13:41:22.909Z,18.92
2022-12-31T13:43:51.160Z,19.13
2022-12-31T13:46:28.421Z,19.35
2022-12-31T13:49:01.867Z,19.29
2022-12-31T13:51:44.671Z,19.26
2022-12-31T13:54:11.580Z,19.21
2022-12-31T13:56:40.800Z,18.95
2022-12-31T13:59:17.598Z,18.78
2022-12-31T14:01:53.543Z,18.45
2022-12-31T14:04:59.110Z,18.02
2022-12-31T14:07:49.971Z,16.57
2022-12-31T14:10:23.536Z,16.06
2022-12-31T14:13:16.529Z,15.50
2022-12-31T14:16:02.029Z,15.02
2022-12-31T14:18:49.801Z,14.82
2022-12-31T14:22:00.279Z,14.34
2022-12-31T14:24:46.864Z,14.11
2022-12-31T14:27:29.321Z,13.85
2022-12-31T14:30:01.742Z,13.82
2022-12-31T14:32:46.504Z,13.63
2022-12-31T14:35:34.556Z,13.50
2022-12-31T14:38:19.978Z,13.49
2022-12-31T14:41:04.996Z,13.45
2022-12-31T14:44:00.316Z,13.12
2022-12-31T14:46:38.996Z,12.71
2022-12-31T14:49:30.626Z,12.60
2022-12-31T14:52:21.007Z,12.58
2022-12-31T14:54:58.779Z,12.55
2022-12-31T14:57:47.473Z,12.42
2022-12-31T15:00:50.792Z,12.27
2022-12-31T15:03:17.705Z,12.00
2022-12-31T15:06:00.615Z,11.76
2022-12-31T15:08:27.435Z,11.50
2022-12-31T15:10:57.309Z,11.13
2022-12-31T15:13:40.112Z,10.91
2022-12-31T15:16:25.746Z,10.57
2022-12-31T15:19:25.691Z,10.24
2022-12-31T15:21:58.665Z,9.97
2022-12-31T15:24:27.846Z,9.76
2022-12-31T15:27:06.908Z,9.70
2022-12-31T15:29:42.056Z,9.65
2022-12-31T15:32:20.736Z,9.51
2022-12-31T15:34:47.769Z,9.26
2022-12-31T15:37:35.407Z,9.05
2022-12-31T15:40:20.800Z,8.93
2022-12-31T15:43:00.236Z,8.84
2022-12-31T15:45:33.372Z,8.72
2022-12-31T15:48:06.852Z,8.52
2022-12-31T15:50:37.575Z,8.49
2022-12-31T15:53:07.193Z,8.34
2022-12-31T15:55:48.833Z,8.27
2022-12-31T15:58:24.721Z,8.24
2022-12-31T16:00:59.360Z,8.13
2022-12-31T16:03:29.309Z,8.16
2022-12-31T16:06:08.586Z,8.15
2022-12-31T16:08:37.411Z,8.10
2022-12-31T16:11:06.555Z,8.10
2022-12-31T16:13:37.290Z,8.06
2022-12-31T16:16:19.993Z,8.14
2022-12-31T16:21:38.670Z,7.97
2022-12-31T16:24:29.250Z,7.85
2022-12-31T16:27:01.386Z,7.91
2022-12-31T16:29:29.081Z,7.94
2022-12-31T16:31:56.623Z,7.94
2022-12-31T16:34:27.823Z,7.95
2022-12-31T16:36:56.535Z,7.97
2022-12-31T16:39:27.875Z,7.99
2022-12-31T16:42:13.944Z,8.00
2022-12-31T16:44:41.728Z,8.02
2022-12-31T16:47:15.493Z,8.11
2022-12-31T16:49:43.178Z,8.09
2022-12-31T16:52:39.873Z,8.10
2022-12-31T16:55:30.841Z,7.94
2022-12-31T16:58:11.398Z,7.80
2022-12-31T17:00:38.595Z,7.74
2022-12-31T17:03:09.070Z,7.66
2022-12-31T17:05:59.732Z,7.68
2022-12-31T17:09:09.789Z,7.64
2022-12-31T17:11:56.589Z,7.54
2022-12-31T17:14:28.876Z,7.41
2022-12-31T17:17:06.334Z,7.33
2022-12-31T17:19:40.673Z,7.27
2022-12-31T17:22:32.785Z,7.22
2022-12-31T17:25:18.032Z,7.21
2022-12-31T17:27:59.766Z,7.22
2022-12-31T17:30:35.633Z,7.24
2022-12-31T17:33:02.576Z,7.21
2022-12-31T17:35:33.850Z,7.20
2022-12-31T17:38:22.595Z,7.08
2022-12-31T17:41:14.238Z,7.04
2022-12-31T17:43:42.730Z,6.91
2022-12-31T17:46:16.866Z,6.80
2022-12-31T17:48:46.459Z,6.75
2022-12-31T17:51:13.467Z,6.79
2022-12-31T17:53:40.479Z,6.65
2022-12-31T17:56:16.840Z,6.75
2022-12-31T17:58:50.100Z,6.61
2022-12-31T18:01:20.713Z,6.70
2022-12-31T18:03:48.593Z,6.66
2022-12-31T18:06:17.186Z,6.67
2022-12-31T18:08:44.364Z,6.54
2022-12-31T18:11:21.083Z,6.44
2022-12-31T18:13:48.673Z,6.35
2022-12-31T18:16:15.833Z,6.27
2022-12-31T18:18:43.940Z,6.26
2022-12-31T18:21:22.411Z,6.28
2022-12-31T18:23:50.145Z,6.27
2022-12-31T18:26:20.349Z,6.31
2022-12-31T18:28:48.251Z,6.34
2022-12-31T18:31:35.378Z,6.36
2022-12-31T18:34:02.249Z,6.34
2022-12-31T18:36:29.356Z,6.34
2022-12-31T18:38:56.472Z,6.32
2022-12-31T18:41:27.143Z,6.25
2022-12-31T18:43:55.403Z,6.21
2022-12-31T18:46:24.747Z,6.17
2022-12-31T18:48:51.901Z,6.12
2022-12-31T18:51:31.126Z,6.10
2022-12-31T18:54:01.193Z,5.98
2022-12-31T18:56:29.036Z,6.00
2022-12-31T18:58:56.032Z,5.98
2022-12-31T19:01:34.975Z,5.89
2022-12-31T19:04:26.597Z,5.81
2022-12-31T19:06:54.388Z,5.77
2022-12-31T19:09:44.845Z,5.74
2022-12-31T19:12:13.350Z,5.71
2022-12-31T19:14:40.702Z,5.58
2022-12-31T19:19:34.982Z,5.40
2022-12-31T19:22:03.049Z,5.27
2022-12-31T19:24:30.314Z,5.19
2022-12-31T19:26:57.274Z,5.13
2022-12-31T19:29:26.645Z,5.14
2022-12-31T19:31:54.273Z,5.11
2022-12-31T19:34:21.802Z,5.11
2022-12-31T19:36:48.789Z,5.17
2022-12-31T19:39:21.054Z,5.13
2022-12-31T19:41:54.747Z,5.08
2022-12-31T19:44:25.523Z,5.02
2022-12-31T19:46:52.592Z,4.96
2022-12-31T19:49:19.493Z,4.87
2022-12-31T19:51:46.617Z,4.88
2022-12-31T19:54:13.915Z,4.79
2022-12-31T19:56:41.254Z,4.80
2022-12-31T19:59:10.745Z,4.80
2022-12-31T20:01:39.278Z,4.76
2022-12-31T20:04:06.593Z,4.71
2022-12-31T20:06:33.574Z,4.71
2022-12-31T20:09:00.723Z,4.67
2022-12-31T20:11:27.830Z,4.64
2022-12-31T20:13:55.159Z,4.65
2022-12-31T20:16:24.735Z,4.57
2022-12-31T20:18:51.771Z,4.55
2022-12-31T20:21:23.155Z,4.53
2022-12-31T20:23:53.685Z,4.47
2022-12-31T20:26:23.048Z,4.48
2022-12-31T20:28:51.033Z,4.43
2022-12-31T20:31:21.509Z,4.32
2022-12-31T20:33:48.638Z,4.16
2022-12-31T20:36:17.620Z,4.19
2022-12-31T20:38:45.039Z,4.17
2022-12-31T20:41:17.883Z,4.20
2022-12-31T20:43:45.682Z,4.13
2022-12-31T20:46:22.835Z,4.09
2022-12-31T20:48:52.023Z,4.06
2022-12-31T20:51:20.993Z,4.07
2022-12-31T20:53:50.245Z,4.09
2022-12-31T20:56:18.190Z,4.08
2022-12-31T20:58:45.406Z,4.06
2022-12-31T21:01:13.160Z,4.06
2022-12-31T21:06:30.900Z,4.01
2022-12-31T21:09:00.144Z,4.05
2022-12-31T21:11:46.423Z,4.05
2022-12-31T21:14:13.527Z,4.01
2022-12-31T21:16:40.545Z,4.00
2022-12-31T21:19:07.726Z,4.00
2022-12-31T21:21:34.756Z,3.98
2022-12-31T21:24:01.826Z,3.98
2022-12-31T21:26:29.781Z,4.02
2022-12-31T21:28:56.809Z,3.96
2022-12-31T21:31:23.844Z,3.94
2022-12-31T21:33:50.817Z,3.85
2022-12-31T21:36:17.940Z,3.84
2022-12-31T21:38:45.197Z,3.74
2022-12-31T21:41:34.142Z,3.57
2022-12-31T21:44:02.832Z,3.51
2022-12-31T21:46:30.122Z,3.38
2022-12-31T21:49:00.064Z,3.40
2022-12-31T21:51:28.585Z,3.34
2022-12-31T21:53:56.021Z,3.39
2022-12-31T21:56:23.061Z,3.40
2022-12-31T21:59:16.815Z,3.39
2022-12-31T22:02:03.219Z,3.40
2022-12-31T22:07:17.870Z,3.38
2022-12-31T22:09:44.886Z,3.33
2022-12-31T22:12:11.843Z,3.26
2022-12-31T22:14:38.740Z,3.18
2022-12-31T22:17:05.679Z,3.10
2022-12-31T22:19:39.274Z,3.07
2022-12-31T22:22:19.626Z,3.13
2022-12-31T22:24:46.521Z,3.08
2022-12-31T22:27:28.571Z,3.11
2022-12-31T22:29:56.509Z,3.10
2022-12-31T22:32:24.513Z,3.10
2022-12-31T22:34:51.434Z,3.13
2022-12-31T22:37:46.439Z,3.11
2022-12-31T22:40:06.346Z,3.08
2022-12-31T22:42:33.224Z,3.10
2022-12-31T22:45:00.132Z,3.05
2022-12-31T22:47:27.101Z,3.06
2022-12-31T22:49:54.029Z,3.06
2022-12-31T22:52:21.676Z,3.00
2022-12-31T22:54:48.664Z,2.87
2022-12-31T22:57:20.011Z,3.00
2022-12-31T22:59:47.398Z,2.99
2022-12-31T23:02:14.415Z,2.84
2022-12-31T23:04:41.370Z,2.82
2022-12-31T23:07:08.285Z,2.72
2022-12-31T23:09:53.717Z,2.72
2022-12-31T23:12:20.634Z,2.72
2022-12-31T23:15:06.355Z,2.70
2022-12-31T23:17:51.774Z,2.76
2022-12-31T23:20:40.450Z,2.79
2022-12-31T23:23:15.892Z,2.80
2022-12-31T23:25:50.038Z,2.76
2022-12-31T23:28:23.415Z,2.79
2022-12-31T23:30:53.805Z,2.77
2022-12-31T23:33:23.294Z,2.74
2022-12-31T23:35:50.149Z,2.74
2022-12-31T23:38:18.713Z,2.73
2022-12-31T23:40:47.384Z,2.67
2022-12-31T23:43:22.547Z,2.63
2022-12-31T23:45:53.209Z,2.59
2022-12-31T23:48:20.189Z,2.57
2022-12-31T23:50:53.441Z,2.51
2022-12-31T23:53:24.697Z,2.53
2022-12-31T23:55:52.537Z,2.48
2022-12-31T23:58:22.129Z,2.51
